sensor_id;sensor_type;location;lat;lon;timestamp;temperature;humidity
30336;DHT22;17142;47.990;7.846;2022-10-15T06:40:23;15.00;99.90
30336;DHT22;17142;47.990;7.846;2022-10-15T06:42:49;15.00;99.90
30336;DHT22;17142;47.990;7.846;2022-10-15T06:45:15;15.00;99.90
30336;DHT22;17142;47.990;7.846;2022-10-15T06:47:40;15.00;99.90
30336;DHT22;17142;47.990;7.846;2022-10-15T06:50:06;15.00;99.90
30336;DHT22;17142;47.990;7.846;2022-10-15T06:52:32;15.00;99.90
30336;DHT22;17142;47.990;7.846;2022-10-15T06:54:58;15.00;99.90
30336;DHT22;17142;47.990;7.846;2022-10-15T06:57:26;15.00;99.90
30336;DHT22;17142;47.990;7.846;2022-10-15T06:59:51;15.00;99.90
30336;DHT22;17142;47.990;7.846;2022-10-15T07:02:20;15.00;99.90
30336;DHT22;17142;47.990;7.846;2022-10-15T07:04:48;15.10;99.90
30336;DHT22;17142;47.990;7.846;2022-10-15T07:07:16;15.10;99.90
30336;DHT22;17142;47.990;7.846;2022-10-15T07:09:42;15.10;99.90
30336;DHT22;17142;47.990;7.846;2022-10-15T07:12:08;15.10;99.90
30336;DHT22;17142;47.990;7.846;2022-10-15T07:14:33;15.20;99.90
30336;DHT22;17142;47.990;7.846;2022-10-15T07:16:59;15.20;99.90
30336;DHT22;17142;47.990;7.846;2022-10-15T07:19:27;15.20;99.90
30336;DHT22;17142;47.990;7.846;2022-10-15T07:21:53;15.20;99.90
30336;DHT22;17142;47.990;7.846;2022-10-15T07:24:18;15.30;99.90
30336;DHT22;17142;47.990;7.846;2022-10-15T07:26:46;15.40;99.90
30336;DHT22;17142;47.990;7.846;2022-10-15T07:29:12;15.40;99.90
30336;DHT22;17142;47.990;7.846;2022-10-15T07:31:38;15.50;99.90
30336;DHT22;17142;47.990;7.846;2022-10-15T07:34:03;15.60;99.90
30336;DHT22;17142;47.990;7.846;2022-10-15T07:36:30;15.70;99.90
30336;DHT22;17142;47.990;7.846;2022-10-15T07:38:55;15.80;99.90
30336;DHT22;17142;47.990;7.846;2022-10-15T07:41:21;15.80;99.90
30336;DHT22;17142;47.990;7.846;2022-10-15T07:43:47;15.90;99.90
30336;DHT22;17142;47.990;7.846;2022-10-15T07:46:15;16.00;99.90
30336;DHT22;17142;47.990;7.846;2022-10-15T07:48:43;16.10;99.90
30336;DHT22;17142;47.990;7.846;2022-10-15T07:51:11;16.20;99.90
30336;DHT22;17142;47.990;7.846;2022-10-15T07:53:37;16.40;99.90
30336;DHT22;17142;47.990;7.846;2022-10-15T07:56:05;16.60;99.90
30336;DHT22;17142;47.990;7.846;2022-10-15T07:58:33;16.70;99.90
30336;DHT22;17142;47.990;7.846;2022-10-15T08:01:05;16.80;99.90
30336;DHT22;17142;47.990;7.846;2022-10-15T08:03:31;16.90;99.90
30336;DHT22;17142;47.990;7.846;2022-10-15T08:06:05;17.00;99.90
30336;DHT22;17142;47.990;7.846;2022-10-15T08:08:34;17.00;99.90
30336;DHT22;17142;47.990;7.846;2022-10-15T08:11:07;17.00;99.90
30336;DHT22;17142;47.990;7.846;2022-10-15T08:13:38;17.10;99.90
30336;DHT22;17142;47.990;7.846;2022-10-15T08:16:10;17.30;99.90
30336;DHT22;17142;47.990;7.846;2022-10-15T08:18:36;17.40;99.90
30336;DHT22;17142;47.990;7.846;2022-10-15T08:21:03;17.80;99.90
30336;DHT22;17142;47.990;7.846;2022-10-15T08:23:29;18.10;99.90
30336;DHT22;17142;47.990;7.846;2022-10-15T08:25:57;18.40;99.90
30336;DHT22;17142;47.990;7.846;2022-10-15T08:28:23;18.50;99.90
30336;DHT22;17142;47.990;7.846;2022-10-15T08:30:52;18.40;99.90
30336;DHT22;17142;47.990;7.846;2022-10-15T08:33:17;18.10;99.90
30336;DHT22;17142;47.990;7.846;2022-10-15T08:35:45;17.80;99.90
30336;DHT22;17142;47.990;7.846;2022-10-15T08:38:11;17.60;99.90
30336;DHT22;17142;47.990;7.846;2022-10-15T08:40:37;17.50;99.90
30336;DHT22;17142;47.990;7.846;2022-10-15T08:43:17;17.40;99.90
30336;DHT22;17142;47.990;7.846;2022-10-15T08:45:45;17.40;99.90
30336;DHT22;17142;47.990;7.846;2022-10-15T08:48:19;17.40;99.90
30336;DHT22;17142;47.990;7.846;2022-10-15T08:50:54;17.40;99.90
30336;DHT22;17142;47.990;7.846;2022-10-15T08:53:22;17.40;99.90
30336;DHT22;17142;47.990;7.846;2022-10-15T08:55:55;17.30;99.90
30336;DHT22;17142;47.990;7.846;2022-10-15T09:01:26;17.20;99.90
30336;DHT22;17142;47.990;7.846;2022-10-15T09:06:38;17.20;99.90
30336;DHT22;17142;47.990;7.846;2022-10-15T09:12:00;17.20;99.90
30336;DHT22;17142;47.990;7.846;2022-10-15T09:14:34;17.30;99.90
30336;DHT22;17142;47.990;7.846;2022-10-15T09:17:13;17.30;99.90
30336;DHT22;17142;47.990;7.846;2022-10-15T09:19:42;17.30;99.90
30336;DHT22;17142;47.990;7.846;2022-10-15T09:22:14;17.20;99.90
30336;DHT22;17142;47.990;7.846;2022-10-15T09:24:41;17.30;99.90
30336;DHT22;17142;47.990;7.846;2022-10-15T09:30:05;17.40;99.90
30336;DHT22;17142;47.990;7.846;2022-10-15T09:32:36;17.50;99.90
30336;DHT22;17142;47.990;7.846;2022-10-15T09:43:24;17.80;99.90
30336;DHT22;17142;47.990;7.846;2022-10-15T09:45:56;17.80;99.90
30336;DHT22;17142;47.990;7.846;2022-10-15T09:48:22;17.80;99.90
30336;DHT22;17142;47.990;7.846;2022-10-15T09:51:01;17.70;99.90
30336;DHT22;17142;47.990;7.846;2022-10-15T09:53:43;17.70;99.90
30336;DHT22;17142;47.990;7.846;2022-10-15T09:56:18;17.70;99.90
30336;DHT22;17142;47.990;7.846;2022-10-15T09:58:57;17.80;99.90
30336;DHT22;17142;47.990;7.846;2022-10-15T10:01:27;17.80;99.90
30336;DHT22;17142;47.990;7.846;2022-10-15T10:04:13;17.80;99.90
30336;DHT22;17142;47.990;7.846;2022-10-15T10:12:02;17.70;99.90
30336;DHT22;17142;47.990;7.846;2022-10-15T10:14:32;17.70;99.90
30336;DHT22;17142;47.990;7.846;2022-10-15T10:17:27;17.60;99.90
30336;DHT22;17142;47.990;7.846;2022-10-15T10:22:45;17.50;99.90
30336;DHT22;17142;47.990;7.846;2022-10-15T10:33:33;17.60;99.90
30336;DHT22;17142;47.990;7.846;2022-10-15T10:36:02;17.60;99.90
30336;DHT22;17142;47.990;7.846;2022-10-15T10:38:38;17.70;99.90
30336;DHT22;17142;47.990;7.846;2022-10-15T10:41:11;17.70;99.90
30336;DHT22;17142;47.990;7.846;2022-10-15T10:43:51;17.70;99.90
30336;DHT22;17142;47.990;7.846;2022-10-15T10:46:19;17.70;99.90
30336;DHT22;17142;47.990;7.846;2022-10-15T10:48:52;17.70;99.90
30336;DHT22;17142;47.990;7.846;2022-10-15T10:51:22;17.80;99.90
30336;DHT22;17142;47.990;7.846;2022-10-15T10:54:04;17.80;99.90
30336;DHT22;17142;47.990;7.846;2022-10-15T10:59:22;18.00;99.90
30336;DHT22;17142;47.990;7.846;2022-10-15T11:01:48;18.20;99.90
30336;DHT22;17142;47.990;7.846;2022-10-15T11:04:24;18.50;99.90
30336;DHT22;17142;47.990;7.846;2022-10-15T11:09:54;19.10;99.90
30336;DHT22;17142;47.990;7.846;2022-10-15T11:13:04;19.30;99.90
30336;DHT22;17142;47.990;7.846;2022-10-15T11:26:50;20.10;99.90
30336;DHT22;17142;47.990;7.846;2022-10-15T11:53:02;21.70;99.90
30336;DHT22;17142;47.990;7.846;2022-10-15T11:58:30;21.10;99.90
30336;DHT22;17142;47.990;7.846;2022-10-15T12:01:04;21.00;99.90
30336;DHT22;17142;47.990;7.846;2022-10-15T12:03:35;20.90;99.90
30336;DHT22;17142;47.990;7.846;2022-10-15T12:06:10;20.90;99.90
30336;DHT22;17142;47.990;7.846;2022-10-15T12:08:44;20.80;99.90
30336;DHT22;17142;47.990;7.846;2022-10-15T12:14:16;20.60;99.90
30336;DHT22;17142;47.990;7.846;2022-10-15T12:22:10;20.60;99.90
30336;DHT22;17142;47.990;7.846;2022-10-15T12:29:49;20.60;99.90
30336;DHT22;17142;47.990;7.846;2022-10-15T12:32:26;20.50;99.90
30336;DHT22;17142;47.990;7.846;2022-10-15T12:34:58;20.40;99.90
30336;DHT22;17142;47.990;7.846;2022-10-15T12:37:33;20.30;99.90
30336;DHT22;17142;47.990;7.846;2022-10-15T12:40:17;20.10;99.90
30336;DHT22;17142;47.990;7.846;2022-10-15T12:42:59;20.00;99.90
30336;DHT22;17142;47.990;7.846;2022-10-15T12:45:36;19.80;99.90
30336;DHT22;17142;47.990;7.846;2022-10-15T12:48:16;19.70;99.90
30336;DHT22;17142;47.990;7.846;2022-10-15T12:50:42;19.80;99.90
30336;DHT22;17142;47.990;7.846;2022-10-15T12:53:40;20.00;99.90
30336;DHT22;17142;47.990;7.846;2022-10-15T13:01:29;20.10;99.90
30336;DHT22;17142;47.990;7.846;2022-10-15T13:04:14;19.90;99.90
30336;DHT22;17142;47.990;7.846;2022-10-15T13:06:39;19.70;99.90
30336;DHT22;17142;47.990;7.846;2022-10-15T13:14:29;19.40;99.90
30336;DHT22;17142;47.990;7.846;2022-10-15T13:16:55;19.30;99.90
30336;DHT22;17142;47.990;7.846;2022-10-15T13:19:26;19.30;99.90
30336;DHT22;17142;47.990;7.846;2022-10-15T13:21:57;19.30;99.90
30336;DHT22;17142;47.990;7.846;2022-10-15T13:24:26;19.40;99.90
30336;DHT22;17142;47.990;7.846;2022-10-15T13:26:53;19.50;99.90
30336;DHT22;17142;47.990;7.846;2022-10-15T13:29:22;19.50;99.90
30336;DHT22;17142;47.990;7.846;2022-10-15T13:31:49;19.50;99.90
30336;DHT22;17142;47.990;7.846;2022-10-15T13:34:31;19.40;99.90
30336;DHT22;17142;47.990;7.846;2022-10-15T13:37:01;19.50;99.90
30336;DHT22;17142;47.990;7.846;2022-10-15T13:44:30;19.60;99.90
30336;DHT22;17142;47.990;7.846;2022-10-15T13:46:56;19.70;99.90
30336;DHT22;17142;47.990;7.846;2022-10-15T13:49:22;19.70;99.90
30336;DHT22;17142;47.990;7.846;2022-10-15T13:51:51;19.70;99.90
30336;DHT22;17142;47.990;7.846;2022-10-15T13:54:26;19.60;99.90
30336;DHT22;17142;47.990;7.846;2022-10-15T13:56:53;19.60;99.90
30336;DHT22;17142;47.990;7.846;2022-10-15T13:59:23;19.60;99.90
30336;DHT22;17142;47.990;7.846;2022-10-15T14:02:19;19.70;99.90
30336;DHT22;17142;47.990;7.846;2022-10-15T14:04:44;19.90;99.90
30336;DHT22;17142;47.990;7.846;2022-10-15T14:07:22;19.90;99.90
30336;DHT22;17142;47.990;7.846;2022-10-15T14:09:51;20.00;99.90
30336;DHT22;17142;47.990;7.846;2022-10-15T14:12:20;20.10;99.90
30336;DHT22;17142;47.990;7.846;2022-10-15T14:14:46;20.10;99.90
30336;DHT22;17142;47.990;7.846;2022-10-15T14:17:21;20.10;99.90
30336;DHT22;17142;47.990;7.846;2022-10-15T14:19:51;20.10;99.90
30336;DHT22;17142;47.990;7.846;2022-10-15T14:22:20;20.10;99.90
30336;DHT22;17142;47.990;7.846;2022-10-15T14:24:50;20.00;99.90
30336;DHT22;17142;47.990;7.846;2022-10-15T14:27:21;20.10;99.90
30336;DHT22;17142;47.990;7.846;2022-10-15T14:29:52;20.00;99.90
30336;DHT22;17142;47.990;7.846;2022-10-15T14:34:50;19.90;99.90
30336;DHT22;17142;47.990;7.846;2022-10-15T14:40:22;19.60;99.90
30336;DHT22;17142;47.990;7.846;2022-10-15T14:43:06;19.50;99.90
30336;DHT22;17142;47.990;7.846;2022-10-15T14:45:39;19.30;99.90
30336;DHT22;17142;47.990;7.846;2022-10-15T14:48:14;19.20;99.90
30336;DHT22;17142;47.990;7.846;2022-10-15T14:50:41;19.10;99.90
30336;DHT22;17142;47.990;7.846;2022-10-15T14:53:15;19.10;99.90
30336;DHT22;17142;47.990;7.846;2022-10-15T14:55:50;19.10;99.90
30336;DHT22;17142;47.990;7.846;2022-10-15T14:58:20;19.00;99.90
30336;DHT22;17142;47.990;7.846;2022-10-15T15:00:58;19.00;99.90
30336;DHT22;17142;47.990;7.846;2022-10-15T15:03:34;19.00;99.90
30336;DHT22;17142;47.990;7.846;2022-10-15T15:06:05;18.90;99.90
30336;DHT22;17142;47.990;7.846;2022-10-15T15:08:30;18.80;99.90
30336;DHT22;17142;47.990;7.846;2022-10-15T15:11:01;18.70;99.90
30336;DHT22;17142;47.990;7.846;2022-10-15T15:13:29;18.60;99.90
30336;DHT22;17142;47.990;7.846;2022-10-15T15:15:55;18.60;99.90
30336;DHT22;17142;47.990;7.846;2022-10-15T15:18:21;18.50;99.90
30336;DHT22;17142;47.990;7.846;2022-10-15T15:20:49;18.40;99.90
30336;DHT22;17142;47.990;7.846;2022-10-15T15:23:21;18.40;99.90
30336;DHT22;17142;47.990;7.846;2022-10-15T15:25:48;18.50;99.90
30336;DHT22;17142;47.990;7.846;2022-10-15T15:28:16;18.50;99.90
30336;DHT22;17142;47.990;7.846;2022-10-15T15:30:43;18.50;99.90
30336;DHT22;17142;47.990;7.846;2022-10-15T15:33:14;18.50;99.90
30336;DHT22;17142;47.990;7.846;2022-10-15T15:36:06;18.40;99.90
30336;DHT22;17142;47.990;7.846;2022-10-15T15:38:33;18.40;99.90
30336;DHT22;17142;47.990;7.846;2022-10-15T15:41:01;18.30;99.90
30336;DHT22;17142;47.990;7.846;2022-10-15T15:43:30;18.20;99.90
30336;DHT22;17142;47.990;7.846;2022-10-15T15:46:01;18.10;99.90
30336;DHT22;17142;47.990;7.846;2022-10-15T15:48:33;18.10;99.90
30336;DHT22;17142;47.990;7.846;2022-10-15T15:51:04;18.00;99.90
30336;DHT22;17142;47.990;7.846;2022-10-15T15:53:30;18.00;99.90
30336;DHT22;17142;47.990;7.846;2022-10-15T15:55:56;17.90;99.90
30336;DHT22;17142;47.990;7.846;2022-10-15T15:58:22;17.90;99.90
30336;DHT22;17142;47.990;7.846;2022-10-15T16:00:47;17.80;99.90
30336;DHT22;17142;47.990;7.846;2022-10-15T16:03:14;17.80;99.90
30336;DHT22;17142;47.990;7.846;2022-10-15T16:05:40;17.70;99.90
30336;DHT22;17142;47.990;7.846;2022-10-15T16:08:07;17.50;99.90
30336;DHT22;17142;47.990;7.846;2022-10-15T16:10:33;17.40;99.90
30336;DHT22;17142;47.990;7.846;2022-10-15T16:13:00;17.30;99.90
30336;DHT22;17142;47.990;7.846;2022-10-15T16:15:25;17.20;99.90
30336;DHT22;17142;47.990;7.846;2022-10-15T16:17:51;17.10;99.90
30336;DHT22;17142;47.990;7.846;2022-10-15T16:20:17;17.00;99.90
30336;DHT22;17142;47.990;7.846;2022-10-15T16:22:42;16.90;99.90
30336;DHT22;17142;47.990;7.846;2022-10-15T16:25:09;16.90;99.90
30336;DHT22;17142;47.990;7.846;2022-10-15T16:27:34;16.80;99.90
30336;DHT22;17142;47.990;7.846;2022-10-15T16:30:02;16.80;99.90
30336;DHT22;17142;47.990;7.846;2022-10-15T16:32:28;16.70;99.90
30336;DHT22;17142;47.990;7.846;2022-10-15T16:34:54;16.70;99.90
30336;DHT22;17142;47.990;7.846;2022-10-15T16:37:19;16.70;99.90
30336;DHT22;17142;47.990;7.846;2022-10-15T16:39:45;16.70;99.90
30336;DHT22;17142;47.990;7.846;2022-10-15T16:42:13;16.80;99.90
30336;DHT22;17142;47.990;7.846;2022-10-15T16:44:38;16.80;99.90
30336;DHT22;17142;47.990;7.846;2022-10-15T16:47:06;16.80;99.90
30336;DHT22;17142;47.990;7.846;2022-10-15T16:49:32;16.80;99.90
30336;DHT22;17142;47.990;7.846;2022-10-15T16:51:57;16.70;99.90
30336;DHT22;17142;47.990;7.846;2022-10-15T16:54:23;16.70;99.90
30336;DHT22;17142;47.990;7.846;2022-10-15T16:56:49;16.70;99.90
30336;DHT22;17142;47.990;7.846;2022-10-15T16:59:17;16.70;99.90
30336;DHT22;17142;47.990;7.846;2022-10-15T17:01:43;16.70;99.90
30336;DHT22;17142;47.990;7.846;2022-10-15T17:04:08;16.70;99.90
30336;DHT22;17142;47.990;7.846;2022-10-15T17:06:34;16.70;99.90
30336;DHT22;17142;47.990;7.846;2022-10-15T17:09:00;16.70;99.90
30336;DHT22;17142;47.990;7.846;2022-10-15T17:11:29;16.70;99.90
30336;DHT22;17142;47.990;7.846;2022-10-15T17:13:57;16.70;99.90
30336;DHT22;17142;47.990;7.846;2022-10-15T17:16:31;16.70;99.90
30336;DHT22;17142;47.990;7.846;2022-10-15T17:18:57;16.70;99.90
30336;DHT22;17142;47.990;7.846;2022-10-15T17:21:27;16.70;99.90
30336;DHT22;17142;47.990;7.846;2022-10-15T17:23:55;16.70;99.90
30336;DHT22;17142;47.990;7.846;2022-10-15T17:26:23;16.80;99.90
30336;DHT22;17142;47.990;7.846;2022-10-15T17:28:49;16.80;99.90
30336;DHT22;17142;47.990;7.846;2022-10-15T17:31:20;16.80;99.90
30336;DHT22;17142;47.990;7.846;2022-10-15T17:33:52;16.80;99.90
30336;DHT22;17142;47.990;7.846;2022-10-15T17:36:19;16.90;99.90
30336;DHT22;17142;47.990;7.846;2022-10-15T17:38:46;16.90;99.90
30336;DHT22;17142;47.990;7.846;2022-10-15T17:41:22;16.90;99.90
30336;DHT22;17142;47.990;7.846;2022-10-15T17:43:52;17.00;99.90
30336;DHT22;17142;47.990;7.846;2022-10-15T17:46:23;17.00;99.90
30336;DHT22;17142;47.990;7.846;2022-10-15T17:48:52;17.00;99.90
30336;DHT22;17142;47.990;7.846;2022-10-15T17:51:20;17.00;99.90
30336;DHT22;17142;47.990;7.846;2022-10-15T17:53:47;17.00;99.90
30336;DHT22;17142;47.990;7.846;2022-10-15T17:56:22;17.00;99.90
30336;DHT22;17142;47.990;7.846;2022-10-15T17:58:48;16.90;99.90
30336;DHT22;17142;47.990;7.846;2022-10-15T18:01:18;16.80;99.90
30336;DHT22;17142;47.990;7.846;2022-10-15T18:03:44;16.70;99.90
30336;DHT22;17142;47.990;7.846;2022-10-15T18:06:16;16.70;99.90
30336;DHT22;17142;47.990;7.846;2022-10-15T18:08:43;16.60;99.90
30336;DHT22;17142;47.990;7.846;2022-10-15T18:11:10;16.50;99.90
30336;DHT22;17142;47.990;7.846;2022-10-15T18:13:36;16.40;99.90
30336;DHT22;17142;47.990;7.846;2022-10-15T18:16:04;16.40;99.90
30336;DHT22;17142;47.990;7.846;2022-10-15T18:18:29;16.40;99.90
30336;DHT22;17142;47.990;7.846;2022-10-15T18:20:57;16.50;99.90
30336;DHT22;17142;47.990;7.846;2022-10-15T18:23:23;16.50;99.90
30336;DHT22;17142;47.990;7.846;2022-10-15T18:26:01;16.50;99.90
30336;DHT22;17142;47.990;7.846;2022-10-15T18:28:27;16.50;99.90
30336;DHT22;17142;47.990;7.846;2022-10-15T18:30:52;16.50;99.90
30336;DHT22;17142;47.990;7.846;2022-10-15T18:33:20;16.40;99.90
30336;DHT22;17142;47.990;7.846;2022-10-15T18:35:46;16.40;99.90
30336;DHT22;17142;47.990;7.846;2022-10-15T18:38:14;16.40;99.90
30336;DHT22;17142;47.990;7.846;2022-10-15T18:40:41;16.40;99.90
30336;DHT22;17142;47.990;7.846;2022-10-15T18:43:09;16.30;99.90
30336;DHT22;17142;47.990;7.846;2022-10-15T18:45:36;16.30;99.90
30336;DHT22;17142;47.990;7.846;2022-10-15T18:48:05;16.30;99.90
30336;DHT22;17142;47.990;7.846;2022-10-15T18:50:32;16.30;99.90
30336;DHT22;17142;47.990;7.846;2022-10-15T18:52:58;16.20;99.90
30336;DHT22;17142;47.990;7.846;2022-10-15T18:55:24;16.20;99.90
30336;DHT22;17142;47.990;7.846;2022-10-15T18:57:50;16.20;99.90
30336;DHT22;17142;47.990;7.846;2022-10-15T19:00:16;16.10;99.90
30336;DHT22;17142;47.990;7.846;2022-10-15T19:02:43;16.10;99.90
30336;DHT22;17142;47.990;7.846;2022-10-15T19:05:11;16.10;99.90
30336;DHT22;17142;47.990;7.846;2022-10-15T19:07:39;16.10;99.90
30336;DHT22;17142;47.990;7.846;2022-10-15T19:10:05;16.10;99.90
30336;DHT22;17142;47.990;7.846;2022-10-15T19:12:33;16.00;99.90
30336;DHT22;17142;47.990;7.846;2022-10-15T19:14:59;16.00;99.90
30336;DHT22;17142;47.990;7.846;2022-10-15T19:17:27;16.10;99.90
30336;DHT22;17142;47.990;7.846;2022-10-15T19:19:54;16.10;99.90
30336;DHT22;17142;47.990;7.846;2022-10-15T19:22:19;16.00;99.90
30336;DHT22;17142;47.990;7.846;2022-10-15T19:24:47;16.00;99.90
30336;DHT22;17142;47.990;7.846;2022-10-15T19:27:15;16.00;99.90
30336;DHT22;17142;47.990;7.846;2022-10-15T19:29:40;15.90;99.90
30336;DHT22;17142;47.990;7.846;2022-10-15T19:32:06;15.90;99.90
30336;DHT22;17142;47.990;7.846;2022-10-15T19:34:34;15.90;99.90
30336;DHT22;17142;47.990;7.846;2022-10-15T19:37:01;15.90;99.90
30336;DHT22;17142;47.990;7.846;2022-10-15T19:39:26;15.90;99.90
30336;DHT22;17142;47.990;7.846;2022-10-15T19:41:53;15.90;99.90
30336;DHT22;17142;47.990;7.846;2022-10-15T19:44:20;15.90;99.90
30336;DHT22;17142;47.990;7.846;2022-10-15T19:46:49;15.90;99.90
30336;DHT22;17142;47.990;7.846;2022-10-15T19:49:17;15.80;99.90
30336;DHT22;17142;47.990;7.846;2022-10-15T19:51:46;15.80;99.90
30336;DHT22;17142;47.990;7.846;2022-10-15T19:54:15;15.80;99.90
30336;DHT22;17142;47.990;7.846;2022-10-15T19:56:40;15.80;99.90
30336;DHT22;17142;47.990;7.846;2022-10-15T19:59:06;15.80;99.90
30336;DHT22;17142;47.990;7.846;2022-10-15T20:01:32;15.90;99.90
30336;DHT22;17142;47.990;7.846;2022-10-15T20:04:01;15.90;99.90
30336;DHT22;17142;47.990;7.846;2022-10-15T20:06:28;15.90;99.90
30336;DHT22;17142;47.990;7.846;2022-10-15T20:08:54;15.90;99.90
30336;DHT22;17142;47.990;7.846;2022-10-15T20:11:20;15.80;99.90
30336;DHT22;17142;47.990;7.846;2022-10-15T20:13:48;15.80;99.90
30336;DHT22;17142;47.990;7.846;2022-10-15T20:16:14;15.80;99.90
30336;DHT22;17142;47.990;7.846;2022-10-15T20:18:42;15.80;99.90
30336;DHT22;17142;47.990;7.846;2022-10-15T20:21:14;15.80;99.90
30336;DHT22;17142;47.990;7.846;2022-10-15T20:23:41;15.90;99.90
30336;DHT22;17142;47.990;7.846;2022-10-15T20:26:09;15.80;99.90
30336;DHT22;17142;47.990;7.846;2022-10-15T20:28:40;15.70;99.90
30336;DHT22;17142;47.990;7.846;2022-10-15T20:31:11;15.70;99.90
30336;DHT22;17142;47.990;7.846;2022-10-15T20:33:38;15.70;99.90
30336;DHT22;17142;47.990;7.846;2022-10-15T20:36:09;15.70;99.90
30336;DHT22;17142;47.990;7.846;2022-10-15T20:38:37;15.70;99.90
30336;DHT22;17142;47.990;7.846;2022-10-15T20:41:13;15.70;99.90
30336;DHT22;17142;47.990;7.846;2022-10-15T20:43:43;15.80;99.90
30336;DHT22;17142;47.990;7.846;2022-10-15T20:46:12;15.80;99.90
30336;DHT22;17142;47.990;7.846;2022-10-15T20:48:39;15.80;99.90
30336;DHT22;17142;47.990;7.846;2022-10-15T20:51:09;15.80;99.90
30336;DHT22;17142;47.990;7.846;2022-10-15T20:53:36;15.80;99.90
30336;DHT22;17142;47.990;7.846;2022-10-15T20:56:02;15.90;99.90
30336;DHT22;17142;47.990;7.846;2022-10-15T20:58:30;15.80;99.90
30336;DHT22;17142;47.990;7.846;2022-10-15T21:00:56;15.80;99.90
30336;DHT22;17142;47.990;7.846;2022-10-15T21:03:24;15.80;99.90
30336;DHT22;17142;47.990;7.846;2022-10-15T21:05:50;15.70;99.90
30336;DHT22;17142;47.990;7.846;2022-10-15T21:08:15;15.70;99.90
30336;DHT22;17142;47.990;7.846;2022-10-15T21:10:41;15.70;99.90
30336;DHT22;17142;47.990;7.846;2022-10-15T21:13:07;15.80;99.90
30336;DHT22;17142;47.990;7.846;2022-10-15T21:15:33;15.80;99.90
30336;DHT22;17142;47.990;7.846;2022-10-15T21:18:01;15.80;99.90
30336;DHT22;17142;47.990;7.846;2022-10-15T21:20:26;15.80;99.90
30336;DHT22;17142;47.990;7.846;2022-10-15T21:22:52;15.80;99.90
30336;DHT22;17142;47.990;7.846;2022-10-15T21:25:20;15.70;99.90
30336;DHT22;17142;47.990;7.846;2022-10-15T21:27:46;15.80;99.90
30336;DHT22;17142;47.990;7.846;2022-10-15T21:30:11;15.80;99.90
30336;DHT22;17142;47.990;7.846;2022-10-15T21:32:37;15.80;99.90
30336;DHT22;17142;47.990;7.846;2022-10-15T21:35:03;15.70;99.90
30336;DHT22;17142;47.990;7.846;2022-10-15T21:37:38;15.70;99.90
30336;DHT22;17142;47.990;7.846;2022-10-15T21:40:05;15.60;99.90
30336;DHT22;17142;47.990;7.846;2022-10-15T21:42:32;15.60;99.90
30336;DHT22;17142;47.990;7.846;2022-10-15T21:44:58;15.60;99.90
30336;DHT22;17142;47.990;7.846;2022-10-15T21:47:26;15.60;99.90
30336;DHT22;17142;47.990;7.846;2022-10-15T21:49:51;15.60;99.90
30336;DHT22;17142;47.990;7.846;2022-10-15T21:52:17;15.50;99.90
30336;DHT22;17142;47.990;7.846;2022-10-15T21:54:42;15.50;99.90
30336;DHT22;17142;47.990;7.846;2022-10-15T21:57:08;15.60;99.90
30336;DHT22;17142;47.990;7.846;2022-10-15T21:59:34;15.60;99.90
30336;DHT22;17142;47.990;7.846;2022-10-15T22:01:59;15.70;99.90
30336;DHT22;17142;47.990;7.846;2022-10-15T22:04:27;15.60;99.90
30336;DHT22;17142;47.990;7.846;2022-10-15T22:06:57;15.50;99.90
30336;DHT22;17142;47.990;7.846;2022-10-15T22:09:23;15.40;99.90
30336;DHT22;17142;47.990;7.846;2022-10-15T22:11:48;15.30;99.90
30336;DHT22;17142;47.990;7.846;2022-10-15T22:14:18;15.30;99.90
30336;DHT22;17142;47.990;7.846;2022-10-15T22:16:44;15.30;99.90
30336;DHT22;17142;47.990;7.846;2022-10-15T22:19:12;15.20;99.90
30336;DHT22;17142;47.990;7.846;2022-10-15T22:21:41;15.20;99.90
30336;DHT22;17142;47.990;7.846;2022-10-15T22:24:18;15.20;99.90
30336;DHT22;17142;47.990;7.846;2022-10-15T22:26:51;15.20;99.90
30336;DHT22;17142;47.990;7.846;2022-10-15T22:31:45;15.30;99.90
30336;DHT22;17142;47.990;7.846;2022-10-15T22:34:10;15.20;99.90
30336;DHT22;17142;47.990;7.846;2022-10-15T22:36:39;15.20;99.90
30336;DHT22;17142;47.990;7.846;2022-10-15T22:39:11;15.20;99.90
30336;DHT22;17142;47.990;7.846;2022-10-15T22:41:38;15.30;99.90
30336;DHT22;17142;47.990;7.846;2022-10-15T22:44:05;15.30;99.90
30336;DHT22;17142;47.990;7.846;2022-10-15T22:46:36;15.30;99.90
30336;DHT22;17142;47.990;7.846;2022-10-15T22:49:02;15.30;99.90
30336;DHT22;17142;47.990;7.846;2022-10-15T22:51:28;15.30;99.90
30336;DHT22;17142;47.990;7.846;2022-10-15T22:53:57;15.30;99.90
30336;DHT22;17142;47.990;7.846;2022-10-15T22:56:26;15.20;99.90
30336;DHT22;17142;47.990;7.846;2022-10-15T22:58:54;15.10;99.90
30336;DHT22;17142;47.990;7.846;2022-10-15T23:01:24;15.10;99.90
30336;DHT22;17142;47.990;7.846;2022-10-15T23:03:54;15.00;99.90
30336;DHT22;17142;47.990;7.846;2022-10-15T23:06:21;15.00;99.90
30336;DHT22;17142;47.990;7.846;2022-10-15T23:08:52;15.00;99.90
30336;DHT22;17142;47.990;7.846;2022-10-15T23:11:29;15.00;99.90
30336;DHT22;17142;47.990;7.846;2022-10-15T23:14:02;15.00;99.90
30336;DHT22;17142;47.990;7.846;2022-10-15T23:16:37;15.00;99.90
30336;DHT22;17142;47.990;7.846;2022-10-15T23:19:15;15.00;99.90
30336;DHT22;17142;47.990;7.846;2022-10-15T23:24:09;14.90;99.90
30336;DHT22;17142;47.990;7.846;2022-10-15T23:26:39;14.90;99.90
30336;DHT22;17142;47.990;7.846;2022-10-15T23:29:13;14.90;99.90
30336;DHT22;17142;47.990;7.846;2022-10-15T23:31:38;14.90;99.90
30336;DHT22;17142;47.990;7.846;2022-10-15T23:34:04;15.00;99.90
30336;DHT22;17142;47.990;7.846;2022-10-15T23:36:31;14.90;99.90
30336;DHT22;17142;47.990;7.846;2022-10-15T23:39:02;14.90;99.90
30336;DHT22;17142;47.990;7.846;2022-10-15T23:41:30;14.90;99.90
30336;DHT22;17142;47.990;7.846;2022-10-15T23:43:59;14.90;99.90
30336;DHT22;17142;47.990;7.846;2022-10-15T23:46:25;14.80;99.90
30336;DHT22;17142;47.990;7.846;2022-10-15T23:48:50;14.80;99.90
30336;DHT22;17142;47.990;7.846;2022-10-15T23:51:28;14.80;99.90
30336;DHT22;17142;47.990;7.846;2022-10-15T23:53:57;14.80;99.90
30336;DHT22;17142;47.990;7.846;2022-10-15T23:56:26;14.80;99.90
30336;DHT22;17142;47.990;7.846;2022-10-15T23:58:55;14.80;99.90
